Forside
METAR-TAF:

METAR-TAF

Lufthavne :

Searcy Municipal Airport

Searcy, Arkansas, USA

Breddekreds: 35-12-43N, længdekreds: 091-44-14W, højde: 81 m

Aktuelle vejr

Denne rapport blev lavet for 1 time og 6 minutter siden, kl. 00:56 UTC
Vind 12 kt fra sydvest med vindstød på up til 22 kt
Temperatur 18°C
Fugtighed 39%
Tryk 1005 hPa
Sigt: 16.1 km
skyfri

METAR: KSRC 240056Z AUTO 23012G22KT 10SM CLR 18/04 A2968 RMK AO2 SLP059 T01780039

Tid: 20:02 (02:02 UTC)


TAF: fraværende

Vejrobservationer og prognoser fra mere end 4000 lufthavne (METAR og TAF).

De gule og røde prikker repræsenterer de meteorologiske stationer.

Flyt musen over at se navnet på stationen.

Så klik over at se vejr observationer og prognoser.

At skifte det kort: Klik på de grønne knapper med et sort kors for at zoome ind; på den grønne knap med en bindestreg for at zoome ud; eller på de grønne pile for tilstødende kort.


METAR-TAF: